createdAt,value
2018-01-05T00:02:08.551Z,6.13
2018-01-05T00:04:36.749Z,4.90
2018-01-05T00:07:05.001Z,4.97
2018-01-05T00:09:33.179Z,4.17
2018-01-05T00:12:01.349Z,3.83
2018-01-05T00:14:29.506Z,4.00
2018-01-05T00:16:57.717Z,4.43
2018-01-05T00:19:25.872Z,5.90
2018-01-05T00:21:54.045Z,3.17
2018-01-05T00:24:22.214Z,3.80
2018-01-05T00:26:51.231Z,2.57
2018-01-05T00:29:19.473Z,3.30
2018-01-05T00:31:47.652Z,2.97
2018-01-05T00:34:15.789Z,2.70
2018-01-05T00:36:44.750Z,3.07
2018-01-05T00:39:12.893Z,3.57
2018-01-05T00:41:41.068Z,2.93
2018-01-05T00:44:09.213Z,2.70
2018-01-05T00:46:37.411Z,3.70
2018-01-05T00:49:05.597Z,3.63
2018-01-05T00:51:33.802Z,2.90
2018-01-05T00:54:01.941Z,3.23
2018-01-05T00:56:30.101Z,3.97
2018-01-05T00:58:58.241Z,3.87
2018-01-05T01:01:26.430Z,4.83
2018-01-05T01:03:54.631Z,3.20
2018-01-05T01:06:22.794Z,3.60
2018-01-05T01:08:50.957Z,3.60
2018-01-05T01:11:19.898Z,3.57
2018-01-05T01:13:48.041Z,3.90
2018-01-05T01:16:16.219Z,3.80
2018-01-05T01:18:44.364Z,3.83
2018-01-05T01:21:13.375Z,3.13
2018-01-05T01:23:41.537Z,3.67
2018-01-05T01:26:10.496Z,3.50
2018-01-05T01:28:38.649Z,3.30
2018-01-05T01:31:07.009Z,3.70
2018-01-05T01:33:35.184Z,3.60
2018-01-05T01:36:03.389Z,4.13
2018-01-05T01:38:31.537Z,4.60
2018-01-05T01:40:59.735Z,4.23
2018-01-05T01:43:27.939Z,4.43
2018-01-05T01:45:56.880Z,4.10
2018-01-05T01:48:25.036Z,4.23
2018-01-05T01:50:53.226Z,4.30
2018-01-05T01:53:21.400Z,4.70
2018-01-05T01:55:49.588Z,4.00
2018-01-05T01:58:17.777Z,4.27
2018-01-05T02:00:45.950Z,5.07
2018-01-05T02:03:14.131Z,5.33
2018-01-05T02:05:42.308Z,4.70
2018-01-05T02:08:10.460Z,5.00
2018-01-05T02:10:38.668Z,4.50
2018-01-05T02:13:07.588Z,4.80
2018-01-05T02:15:35.766Z,4.70
2018-01-05T02:18:03.933Z,4.47
2018-01-05T02:20:32.106Z,5.10
2018-01-05T02:23:01.104Z,3.47
2018-01-05T02:25:29.530Z,4.43
2018-01-05T02:27:57.674Z,4.27
2018-01-05T02:30:25.890Z,4.20
2018-01-05T02:32:54.058Z,4.00
2018-01-05T02:35:22.227Z,4.10
2018-01-05T02:37:50.407Z,3.33
2018-01-05T02:40:18.592Z,4.40
2018-01-05T02:42:46.753Z,4.00
2018-01-05T02:45:15.707Z,3.30
2018-01-05T02:47:43.903Z,3.77
2018-01-05T02:50:12.072Z,5.10
2018-01-05T02:52:40.283Z,4.10
2018-01-05T02:55:08.463Z,3.40
2018-01-05T02:57:37.429Z,3.40
2018-01-05T03:00:05.588Z,2.90
2018-01-05T03:02:37.680Z,2.60
2018-01-05T03:05:05.842Z,2.97
2018-01-05T03:07:34.045Z,2.80
2018-01-05T03:10:02.222Z,3.03
2018-01-05T03:12:31.183Z,2.63
2018-01-05T03:14:59.333Z,2.97
2018-01-05T03:17:27.521Z,3.23
2018-01-05T03:19:55.673Z,2.90
2018-01-05T03:22:23.868Z,2.50
2018-01-05T03:24:52.017Z,3.73
2018-01-05T03:27:20.202Z,2.57
2018-01-05T03:29:48.358Z,2.90
2018-01-05T03:32:16.527Z,3.20
2018-01-05T03:34:44.677Z,3.87
2018-01-05T03:37:13.629Z,2.80
2018-01-05T03:39:41.770Z,3.80
2018-01-05T03:42:09.968Z,2.47
2018-01-05T03:44:38.121Z,2.50
2018-01-05T03:47:06.318Z,3.37
2018-01-05T03:49:34.511Z,2.93
2018-01-05T03:52:03.276Z,2.73
2018-01-05T03:54:31.502Z,2.70
2018-01-05T03:56:59.658Z,2.50
2018-01-05T03:59:27.806Z,2.77
2018-01-05T04:01:55.977Z,3.13
2018-01-05T04:04:24.137Z,2.80
2018-01-05T04:06:52.300Z,2.73
2018-01-05T04:09:20.487Z,2.90
2018-01-05T04:11:48.653Z,2.90
2018-01-05T04:14:16.797Z,4.10
2018-01-05T04:16:44.970Z,4.43
2018-01-05T04:19:14.852Z,4.00
2018-01-05T04:21:44.783Z,2.80
2018-01-05T04:24:14.035Z,4.47
2018-01-05T04:26:42.236Z,3.23
2018-01-05T04:29:10.374Z,3.77
2018-01-05T04:31:38.551Z,4.00
2018-01-05T04:34:06.680Z,4.00
2018-01-05T04:36:34.855Z,3.43
2018-01-05T04:39:03.468Z,3.40
2018-01-05T04:41:33.524Z,3.70
2018-01-05T04:44:02.864Z,3.53
2018-01-05T04:46:31.983Z,3.63
2018-01-05T04:49:00.184Z,3.40
2018-01-05T04:51:28.356Z,3.43
2018-01-05T04:53:56.483Z,3.10
2018-01-05T04:56:24.778Z,3.00
2018-01-05T04:58:52.932Z,3.67
2018-01-05T05:01:21.105Z,3.77
2018-01-05T05:03:49.236Z,4.03
2018-01-05T05:06:17.572Z,3.23
2018-01-05T05:08:46.476Z,4.03
2018-01-05T05:11:16.174Z,3.10
2018-01-05T05:13:45.115Z,3.23
2018-01-05T05:16:13.274Z,2.93
2018-01-05T05:18:41.420Z,3.00
2018-01-05T05:21:10.357Z,2.80
2018-01-05T05:23:38.484Z,2.90
2018-01-05T05:26:07.396Z,3.00
2018-01-05T05:28:35.563Z,2.00
2018-01-05T05:31:03.716Z,2.17
2018-01-05T05:33:32.651Z,2.20
2018-01-05T05:36:00.824Z,2.20
2018-01-05T05:38:29.127Z,2.20
2018-01-05T05:40:57.280Z,2.73
2018-01-05T05:43:25.798Z,2.60
2018-01-05T05:45:54.140Z,2.50
2018-01-05T05:48:22.294Z,2.10
2018-01-05T05:50:50.413Z,2.00
2018-01-05T05:53:18.576Z,2.20
2018-01-05T05:55:46.760Z,2.20
2018-01-05T05:58:14.971Z,3.00
2018-01-05T06:00:43.893Z,2.43
2018-01-05T06:03:12.059Z,3.00
2018-01-05T06:05:40.249Z,3.60
2018-01-05T06:08:08.413Z,2.30
2018-01-05T06:10:37.526Z,2.60
2018-01-05T06:13:05.898Z,2.30
2018-01-05T06:15:34.041Z,3.00
2018-01-05T06:18:03.424Z,2.77
2018-01-05T06:20:31.700Z,2.47
2018-01-05T06:22:59.891Z,2.47
2018-01-05T06:25:28.787Z,2.53
2018-01-05T06:27:57.723Z,2.50
2018-01-05T06:30:27.716Z,3.20
2018-01-05T06:32:56.658Z,2.40
2018-01-05T06:35:29.187Z,2.60
2018-01-05T06:38:00.116Z,2.40
2018-01-05T06:40:34.851Z,2.40
2018-01-05T06:43:12.218Z,3.03
2018-01-05T06:45:42.380Z,3.50
2018-01-05T06:48:13.717Z,3.57
2018-01-05T06:50:42.192Z,2.80
2018-01-05T06:53:10.922Z,3.07
2018-01-05T06:55:39.150Z,4.00
2018-01-05T06:58:08.076Z,4.90
2018-01-05T07:00:36.226Z,3.30
2018-01-05T07:03:04.675Z,3.90
2018-01-05T07:05:32.845Z,3.30
2018-01-05T07:08:01.068Z,3.83
2018-01-05T07:10:29.445Z,3.03
2018-01-05T07:12:57.608Z,3.57
2018-01-05T07:15:25.745Z,2.90
2018-01-05T07:17:55.820Z,3.20
2018-01-05T07:20:24.858Z,3.50
2018-01-05T07:22:53.024Z,3.03
2018-01-05T07:25:21.258Z,3.73
2018-01-05T07:27:49.426Z,2.80
2018-01-05T07:30:17.571Z,3.13
2018-01-05T07:32:46.506Z,2.70
2018-01-05T07:35:14.681Z,2.80
2018-01-05T07:37:42.857Z,2.70
2018-01-05T07:40:11.003Z,2.80
2018-01-05T07:42:39.924Z,2.67
2018-01-05T07:45:08.119Z,3.00
2018-01-05T07:47:36.328Z,2.10
2018-01-05T07:50:05.263Z,1.83
2018-01-05T07:52:33.433Z,1.87
2018-01-05T07:55:01.585Z,2.30
2018-01-05T07:57:30.714Z,3.33
2018-01-05T07:59:58.876Z,2.33
2018-01-05T08:02:27.063Z,2.67
2018-01-05T08:04:55.240Z,2.50
2018-01-05T08:07:23.413Z,3.43
2018-01-05T08:09:51.558Z,2.60
2018-01-05T08:12:19.733Z,2.53
2018-01-05T08:14:47.881Z,2.70
2018-01-05T08:17:16.837Z,2.60
2018-01-05T08:19:45.002Z,3.10
2018-01-05T08:22:13.217Z,3.50
2018-01-05T08:24:41.353Z,2.57
2018-01-05T08:27:09.573Z,3.60
2018-01-05T08:29:37.701Z,2.67
2018-01-05T08:32:07.638Z,3.13
2018-01-05T08:34:35.790Z,3.20
2018-01-05T08:37:03.951Z,3.63
2018-01-05T08:39:32.888Z,2.80
2018-01-05T08:42:01.067Z,3.37
2018-01-05T08:44:30.117Z,2.87
2018-01-05T08:46:58.260Z,3.27
2018-01-05T08:49:26.468Z,2.63
2018-01-05T08:51:54.598Z,3.53
2018-01-05T08:54:23.519Z,2.80
2018-01-05T08:56:51.654Z,4.13
2018-01-05T08:59:20.586Z,2.70
2018-01-05T09:01:48.745Z,2.50
2018-01-05T09:04:16.930Z,3.13
2018-01-05T09:06:45.067Z,3.20
2018-01-05T09:09:14.012Z,2.53
2018-01-05T09:11:42.163Z,3.00
2018-01-05T09:14:10.318Z,2.90
2018-01-05T09:16:39.295Z,2.97
2018-01-05T09:19:07.693Z,2.80
2018-01-05T09:21:35.961Z,3.53
2018-01-05T09:24:04.185Z,3.27
2018-01-05T09:26:32.675Z,3.37
2018-01-05T09:29:01.402Z,3.23
2018-01-05T09:31:31.089Z,3.70
2018-01-05T09:33:59.325Z,3.30
2018-01-05T09:36:27.487Z,3.80
2018-01-05T09:38:55.753Z,3.60
2018-01-05T09:41:24.774Z,4.50
2018-01-05T09:43:52.966Z,3.93
2018-01-05T09:46:21.113Z,2.90
2018-01-05T09:48:49.298Z,3.37
2018-01-05T09:51:17.456Z,5.03
2018-01-05T09:53:45.642Z,3.77
2018-01-05T09:56:13.964Z,3.53
2018-01-05T09:58:42.246Z,3.40
2018-01-05T10:01:11.212Z,3.30
2018-01-05T10:03:39.390Z,3.43
2018-01-05T10:06:07.552Z,3.73
2018-01-05T10:08:35.715Z,3.30
2018-01-05T10:11:04.833Z,3.30
2018-01-05T10:13:34.298Z,3.77
2018-01-05T10:16:02.469Z,3.40
2018-01-05T10:18:30.662Z,4.10
2018-01-05T10:20:58.820Z,3.53
2018-01-05T10:23:27.016Z,4.20
2018-01-05T10:25:55.166Z,3.87
2018-01-05T10:28:24.535Z,4.23
2018-01-05T10:30:53.455Z,4.70
2018-01-05T10:33:21.632Z,4.70
2018-01-05T10:35:49.803Z,4.67
2018-01-05T10:38:17.974Z,5.33
2018-01-05T10:40:46.121Z,5.70
2018-01-05T10:43:15.308Z,4.50
2018-01-05T10:45:43.455Z,4.90
2018-01-05T10:48:11.619Z,5.77
2018-01-05T10:50:39.781Z,5.33
2018-01-05T10:53:07.956Z,5.50
2018-01-05T10:55:37.449Z,4.50
2018-01-05T10:58:05.542Z,5.07
2018-01-05T11:00:33.870Z,4.10
2018-01-05T11:03:02.038Z,4.90
2018-01-05T11:05:30.194Z,4.87
2018-01-05T11:07:58.376Z,4.50
2018-01-05T11:10:28.959Z,4.90
2018-01-05T11:12:57.141Z,5.20
2018-01-05T11:15:25.304Z,4.20
2018-01-05T11:17:54.212Z,4.53
2018-01-05T11:20:22.393Z,4.57
2018-01-05T11:22:50.565Z,4.40
2018-01-05T11:25:18.716Z,4.27
2018-01-05T11:27:47.613Z,3.90
2018-01-05T11:30:16.528Z,4.00
2018-01-05T11:32:44.663Z,4.60
2018-01-05T11:35:12.829Z,4.70
2018-01-05T11:37:40.971Z,4.37
2018-01-05T11:40:09.204Z,5.50
2018-01-05T11:42:37.377Z,5.43
2018-01-05T11:45:05.560Z,5.20
2018-01-05T11:47:34.454Z,4.73
2018-01-05T11:50:02.616Z,5.83
2018-01-05T11:52:34.529Z,5.50
2018-01-05T11:55:03.203Z,5.50
2018-01-05T11:57:32.174Z,6.07
2018-01-05T12:00:02.302Z,5.37
2018-01-05T12:02:36.055Z,5.37
2018-01-05T12:05:04.264Z,6.13
2018-01-05T12:07:32.442Z,4.97
2018-01-05T12:10:07.274Z,5.53
2018-01-05T12:12:37.116Z,4.40
2018-01-05T12:15:07.176Z,4.60
2018-01-05T12:17:36.616Z,5.10
2018-01-05T12:20:04.769Z,4.93
2018-01-05T12:22:33.676Z,5.30
2018-01-05T12:25:02.026Z,5.47
2018-01-05T12:27:30.324Z,4.80
2018-01-05T12:29:59.256Z,5.23
2018-01-05T12:32:27.404Z,5.27
2018-01-05T12:34:56.988Z,7.40
2018-01-05T12:37:25.060Z,4.90
2018-01-05T12:39:53.995Z,5.30
2018-01-05T12:42:22.532Z,5.10
2018-01-05T12:44:50.836Z,5.67
2018-01-05T12:47:18.969Z,5.97
2018-01-05T12:49:47.137Z,6.17
2018-01-05T12:52:15.290Z,6.00
2018-01-05T12:54:43.457Z,5.87
2018-01-05T12:57:11.608Z,5.73
2018-01-05T12:59:39.780Z,5.90
2018-01-05T13:02:07.916Z,5.97
2018-01-05T13:04:36.081Z,6.40
2018-01-05T13:07:04.231Z,6.80
2018-01-05T13:09:32.388Z,5.80
2018-01-05T13:12:00.519Z,5.70
2018-01-05T13:14:28.675Z,6.27
2018-01-05T13:16:56.822Z,6.00
2018-01-05T13:19:24.992Z,6.10
2018-01-05T13:21:53.124Z,6.53
2018-01-05T13:24:22.037Z,6.67
2018-01-05T13:26:50.164Z,5.80
2018-01-05T13:29:18.319Z,6.50
2018-01-05T13:31:46.479Z,7.23
2018-01-05T13:34:14.675Z,6.10
2018-01-05T13:36:42.833Z,6.23
2018-01-05T13:39:11.007Z,6.80
2018-01-05T13:41:39.164Z,7.53
2018-01-05T13:44:07.358Z,8.17
2018-01-05T13:46:35.556Z,7.70
2018-01-05T13:49:03.710Z,7.60
2018-01-05T13:51:31.874Z,7.20
2018-01-05T13:54:00.048Z,7.13
2018-01-05T13:56:28.196Z,7.33
2018-01-05T13:58:57.145Z,6.33
2018-01-05T14:01:25.326Z,7.13
2018-01-05T14:03:53.494Z,7.63
2018-01-05T14:06:21.674Z,6.23
2018-01-05T14:08:49.819Z,6.70
2018-01-05T14:11:17.982Z,6.10
2018-01-05T14:13:46.148Z,6.27
2018-01-05T14:16:14.346Z,5.67
2018-01-05T14:18:42.499Z,6.27
2018-01-05T14:21:10.671Z,6.50
2018-01-05T14:23:38.809Z,5.20
2018-01-05T14:26:06.972Z,5.33
2018-01-05T14:28:35.912Z,4.80
2018-01-05T14:31:04.566Z,5.73
2018-01-05T14:33:33.910Z,6.73
2018-01-05T14:36:02.065Z,7.10
2018-01-05T14:38:30.230Z,5.97
2018-01-05T14:40:59.177Z,5.67
2018-01-05T14:43:27.323Z,4.93
2018-01-05T14:45:55.468Z,5.00
2018-01-05T14:48:24.373Z,5.20
2018-01-05T14:50:52.525Z,5.57
2018-01-05T14:53:21.461Z,5.30
2018-01-05T14:55:49.625Z,5.77
2018-01-05T14:58:17.760Z,5.20
2018-01-05T15:00:46.016Z,5.23
2018-01-05T15:03:14.164Z,5.30
2018-01-05T15:05:42.332Z,4.47
2018-01-05T15:08:11.261Z,4.60
2018-01-05T15:10:39.450Z,3.93
2018-01-05T15:13:07.577Z,4.17
2018-01-05T15:15:35.748Z,3.87
2018-01-05T15:18:04.513Z,3.90
2018-01-05T15:20:33.026Z,4.37
2018-01-05T15:23:01.157Z,3.90
2018-01-05T15:25:30.266Z,4.00
2018-01-05T15:27:59.730Z,4.10
2018-01-05T15:30:27.872Z,3.83
2018-01-05T15:32:56.000Z,3.80
2018-01-05T15:35:24.953Z,5.13
2018-01-05T15:37:53.078Z,4.40
2018-01-05T15:40:21.255Z,4.20
2018-01-05T15:42:49.392Z,3.90
2018-01-05T15:45:17.624Z,4.03
2018-01-05T15:47:45.747Z,4.63
2018-01-05T15:50:13.896Z,4.10
2018-01-05T15:52:42.028Z,4.63
2018-01-05T15:55:10.195Z,3.73
2018-01-05T15:57:38.396Z,4.13
2018-01-05T16:00:06.542Z,3.93
2018-01-05T16:02:39.308Z,4.27
2018-01-05T16:05:08.253Z,4.27
2018-01-05T16:07:36.387Z,4.70
2018-01-05T16:10:05.300Z,4.47
2018-01-05T16:12:33.449Z,4.43
2018-01-05T16:15:02.364Z,4.47
2018-01-05T16:17:31.255Z,5.07
2018-01-05T16:20:00.182Z,4.63
2018-01-05T16:22:28.315Z,4.90
2018-01-05T16:24:57.236Z,5.10
2018-01-05T16:27:25.359Z,4.43
2018-01-05T16:29:53.549Z,13.00
2018-01-05T16:32:22.485Z,10.90
2018-01-05T16:34:50.633Z,5.70
2018-01-05T16:37:18.794Z,5.70
2018-01-05T16:39:46.989Z,5.57
2018-01-05T16:42:15.146Z,4.73
2018-01-05T16:44:43.469Z,6.57
2018-01-05T16:47:11.644Z,7.70
2018-01-05T16:49:39.837Z,5.20
2018-01-05T16:52:07.992Z,3.67
2018-01-05T16:54:36.150Z,4.77
2018-01-05T16:57:05.479Z,4.80
2018-01-05T16:59:33.607Z,4.07
2018-01-05T17:02:01.764Z,4.50
2018-01-05T17:04:30.661Z,3.87
2018-01-05T17:06:59.577Z,6.80
2018-01-05T17:09:28.485Z,4.10
2018-01-05T17:11:56.827Z,4.40
2018-01-05T17:14:25.028Z,4.03
2018-01-05T17:16:53.197Z,4.57
2018-01-05T17:19:23.022Z,3.70
2018-01-05T17:21:51.211Z,3.80
2018-01-05T17:24:19.473Z,22.10
2018-01-05T17:26:47.832Z,16.33
2018-01-05T17:29:16.093Z,7.40
2018-01-05T17:31:44.481Z,10.70
2018-01-05T17:34:12.622Z,7.47
2018-01-05T17:36:40.823Z,5.53
2018-01-05T17:39:09.503Z,5.57
2018-01-05T17:41:37.661Z,4.60
2018-01-05T17:44:06.587Z,5.20
2018-01-05T17:46:34.802Z,6.03
2018-01-05T17:49:03.503Z,6.80
2018-01-05T17:51:31.797Z,4.67
2018-01-05T17:54:00.697Z,5.40
2018-01-05T17:56:28.852Z,5.53
2018-01-05T17:58:57.856Z,4.30
2018-01-05T18:01:26.785Z,5.07
2018-01-05T18:03:55.071Z,4.83
2018-01-05T18:06:23.230Z,4.70
2018-01-05T18:08:51.355Z,5.90
2018-01-05T18:11:19.593Z,4.87
2018-01-05T18:13:47.737Z,5.47
2018-01-05T18:16:15.897Z,5.47
2018-01-05T18:18:44.183Z,4.47
2018-01-05T18:21:13.116Z,19.90
2018-01-05T18:23:41.485Z,5.70
2018-01-05T18:26:09.657Z,5.90
2018-01-05T18:28:37.802Z,6.33
2018-01-05T18:31:06.983Z,7.43
2018-01-05T18:33:36.405Z,5.07
2018-01-05T18:36:04.690Z,6.50
2018-01-05T18:38:33.040Z,7.17
2018-01-05T18:41:02.011Z,5.03
2018-01-05T18:43:30.164Z,5.20
2018-01-05T18:45:58.328Z,5.17
2018-01-05T18:48:26.525Z,4.70
2018-01-05T18:50:54.692Z,4.03
2018-01-05T18:53:22.939Z,3.70
2018-01-05T18:55:51.232Z,4.20
2018-01-05T18:58:19.376Z,4.50
2018-01-05T19:00:47.725Z,4.23
2018-01-05T19:03:15.860Z,4.03
2018-01-05T19:05:44.035Z,4.00
2018-01-05T19:08:12.207Z,4.20
2018-01-05T19:10:40.420Z,3.43
2018-01-05T19:13:08.560Z,5.17
2018-01-05T19:15:36.837Z,4.30
2018-01-05T19:18:05.145Z,4.93
2018-01-05T19:20:33.347Z,4.90
2018-01-05T19:23:01.628Z,4.27
2018-01-05T19:25:29.987Z,4.90
2018-01-05T19:27:58.993Z,5.50
2018-01-05T19:30:27.917Z,6.23
2018-01-05T19:32:56.567Z,4.50
2018-01-05T19:35:24.719Z,4.63
2018-01-05T19:37:52.918Z,4.90
2018-01-05T19:40:21.582Z,5.37
2018-01-05T19:42:49.831Z,4.63
2018-01-05T19:45:17.964Z,6.13
2018-01-05T19:47:46.971Z,4.97
2018-01-05T19:50:15.132Z,5.67
2018-01-05T19:52:43.332Z,6.47
2018-01-05T19:55:11.533Z,5.43
2018-01-05T19:57:40.012Z,4.97
2018-01-05T20:00:08.308Z,4.77
2018-01-05T20:02:38.189Z,6.03
2018-01-05T20:05:06.447Z,5.00
2018-01-05T20:07:34.668Z,4.70
2018-01-05T20:10:04.636Z,5.90
2018-01-05T20:12:32.797Z,5.07
2018-01-05T20:15:01.666Z,5.00
2018-01-05T20:17:30.376Z,6.13
2018-01-05T20:19:58.722Z,5.53
2018-01-05T20:22:31.816Z,6.57
2018-01-05T20:24:59.936Z,5.70
2018-01-05T20:27:28.110Z,5.90
2018-01-05T20:29:56.241Z,6.17
2018-01-05T20:32:24.632Z,5.80
